sensor_id;sensor_type;location;lat;lon;timestamp;P1;durP1;ratioP1;P2;durP2;ratioP2
76745;SDS011;65671;49.976;20.038;2023-07-31T00:02:22;4.85;;;3.00;;
76745;SDS011;65671;49.976;20.038;2023-07-31T00:04:47;4.22;;;3.28;;
76745;SDS011;65671;49.976;20.038;2023-07-31T00:07:14;4.93;;;3.17;;
76745;SDS011;65671;49.976;20.038;2023-07-31T00:09:39;5.65;;;2.90;;
76745;SDS011;65671;49.976;20.038;2023-07-31T00:12:05;5.15;;;3.17;;
76745;SDS011;65671;49.976;20.038;2023-07-31T00:14:31;4.00;;;2.75;;
76745;SDS011;65671;49.976;20.038;2023-07-31T00:16:56;3.95;;;2.78;;
76745;SDS011;65671;49.976;20.038;2023-07-31T00:19:22;3.55;;;2.83;;
76745;SDS011;65671;49.976;20.038;2023-07-31T00:21:47;5.38;;;3.30;;
76745;SDS011;65671;49.976;20.038;2023-07-31T00:24:13;3.58;;;2.80;;
76745;SDS011;65671;49.976;20.038;2023-07-31T00:26:38;4.28;;;2.67;;
76745;SDS011;65671;49.976;20.038;2023-07-31T00:29:04;3.50;;;2.38;;
76745;SDS011;65671;49.976;20.038;2023-07-31T00:31:29;4.25;;;2.50;;
76745;SDS011;65671;49.976;20.038;2023-07-31T00:33:55;4.57;;;2.70;;
76745;SDS011;65671;49.976;20.038;2023-07-31T00:36:20;4.10;;;3.00;;
76745;SDS011;65671;49.976;20.038;2023-07-31T00:38:46;3.75;;;2.72;;
76745;SDS011;65671;49.976;20.038;2023-07-31T00:41:11;4.47;;;2.50;;
76745;SDS011;65671;49.976;20.038;2023-07-31T00:43:37;4.03;;;2.50;;
76745;SDS011;65671;49.976;20.038;2023-07-31T00:46:02;5.03;;;3.10;;
76745;SDS011;65671;49.976;20.038;2023-07-31T00:48:28;4.18;;;2.38;;
76745;SDS011;65671;49.976;20.038;2023-07-31T00:50:53;3.88;;;2.58;;
76745;SDS011;65671;49.976;20.038;2023-07-31T00:53:19;5.53;;;3.20;;
76745;SDS011;65671;49.976;20.038;2023-07-31T00:55:45;4.32;;;3.00;;
76745;SDS011;65671;49.976;20.038;2023-07-31T00:58:10;4.18;;;2.53;;
76745;SDS011;65671;49.976;20.038;2023-07-31T01:00:36;3.40;;;2.60;;
76745;SDS011;65671;49.976;20.038;2023-07-31T01:03:01;3.35;;;2.47;;
76745;SDS011;65671;49.976;20.038;2023-07-31T01:05:50;6.32;;;2.63;;
76745;SDS011;65671;49.976;20.038;2023-07-31T01:08:22;3.85;;;2.55;;
76745;SDS011;65671;49.976;20.038;2023-07-31T01:10:59;5.20;;;2.75;;
76745;SDS011;65671;49.976;20.038;2023-07-31T01:13:32;3.63;;;2.63;;
76745;SDS011;65671;49.976;20.038;2023-07-31T01:15:58;4.65;;;2.70;;
76745;SDS011;65671;49.976;20.038;2023-07-31T01:18:23;4.03;;;2.42;;
76745;SDS011;65671;49.976;20.038;2023-07-31T01:21:06;5.20;;;2.40;;
76745;SDS011;65671;49.976;20.038;2023-07-31T01:26:19;3.75;;;2.85;;
76745;SDS011;65671;49.976;20.038;2023-07-31T01:33:49;4.13;;;2.85;;
76745;SDS011;65671;49.976;20.038;2023-07-31T01:36:17;5.25;;;2.88;;
76745;SDS011;65671;49.976;20.038;2023-07-31T01:38:43;3.97;;;2.55;;
76745;SDS011;65671;49.976;20.038;2023-07-31T01:41:08;4.22;;;2.90;;
76745;SDS011;65671;49.976;20.038;2023-07-31T01:43:34;11.93;;;3.13;;
76745;SDS011;65671;49.976;20.038;2023-07-31T01:45:59;4.47;;;3.00;;
76745;SDS011;65671;49.976;20.038;2023-07-31T01:48:25;4.40;;;3.28;;
76745;SDS011;65671;49.976;20.038;2023-07-31T01:50:50;7.15;;;3.97;;
76745;SDS011;65671;49.976;20.038;2023-07-31T01:53:15;4.65;;;3.35;;
76745;SDS011;65671;49.976;20.038;2023-07-31T01:55:41;4.95;;;3.20;;
76745;SDS011;65671;49.976;20.038;2023-07-31T01:58:06;4.40;;;3.70;;
76745;SDS011;65671;49.976;20.038;2023-07-31T02:00:32;5.90;;;3.40;;
76745;SDS011;65671;49.976;20.038;2023-07-31T02:02:58;4.47;;;3.22;;
76745;SDS011;65671;49.976;20.038;2023-07-31T02:05:24;3.78;;;3.10;;
76745;SDS011;65671;49.976;20.038;2023-07-31T02:07:50;4.00;;;3.10;;
76745;SDS011;65671;49.976;20.038;2023-07-31T02:10:16;4.88;;;3.10;;
76745;SDS011;65671;49.976;20.038;2023-07-31T02:12:41;5.38;;;3.15;;
76745;SDS011;65671;49.976;20.038;2023-07-31T02:15:07;6.07;;;3.47;;
76745;SDS011;65671;49.976;20.038;2023-07-31T02:17:32;6.47;;;3.30;;
76745;SDS011;65671;49.976;20.038;2023-07-31T02:19:58;5.45;;;3.10;;
76745;SDS011;65671;49.976;20.038;2023-07-31T02:22:23;4.72;;;3.22;;
76745;SDS011;65671;49.976;20.038;2023-07-31T02:24:49;5.32;;;3.63;;
76745;SDS011;65671;49.976;20.038;2023-07-31T02:27:14;5.50;;;3.05;;
76745;SDS011;65671;49.976;20.038;2023-07-31T02:29:39;7.68;;;3.00;;
76745;SDS011;65671;49.976;20.038;2023-07-31T02:32:05;5.10;;;3.15;;
76745;SDS011;65671;49.976;20.038;2023-07-31T02:34:31;4.60;;;3.10;;
76745;SDS011;65671;49.976;20.038;2023-07-31T02:36:56;6.18;;;3.40;;
76745;SDS011;65671;49.976;20.038;2023-07-31T02:39:22;5.45;;;3.38;;
76745;SDS011;65671;49.976;20.038;2023-07-31T02:41:47;5.63;;;3.15;;
76745;SDS011;65671;49.976;20.038;2023-07-31T02:44:12;6.43;;;3.45;;
76745;SDS011;65671;49.976;20.038;2023-07-31T02:46:39;5.57;;;3.50;;
76745;SDS011;65671;49.976;20.038;2023-07-31T02:49:05;7.43;;;3.20;;
76745;SDS011;65671;49.976;20.038;2023-07-31T02:51:30;5.13;;;3.50;;
76745;SDS011;65671;49.976;20.038;2023-07-31T02:53:56;5.88;;;3.03;;
76745;SDS011;65671;49.976;20.038;2023-07-31T02:56:21;5.10;;;3.28;;
76745;SDS011;65671;49.976;20.038;2023-07-31T02:58:47;6.63;;;3.00;;
76745;SDS011;65671;49.976;20.038;2023-07-31T03:01:12;3.90;;;3.15;;
76745;SDS011;65671;49.976;20.038;2023-07-31T03:03:38;6.57;;;3.45;;
76745;SDS011;65671;49.976;20.038;2023-07-31T03:06:03;4.88;;;3.38;;
76745;SDS011;65671;49.976;20.038;2023-07-31T03:08:29;4.82;;;3.13;;
76745;SDS011;65671;49.976;20.038;2023-07-31T03:10:54;6.70;;;4.05;;
76745;SDS011;65671;49.976;20.038;2023-07-31T03:13:21;5.15;;;3.28;;
76745;SDS011;65671;49.976;20.038;2023-07-31T03:15:47;3.70;;;3.13;;
76745;SDS011;65671;49.976;20.038;2023-07-31T03:18:12;5.45;;;3.42;;
76745;SDS011;65671;49.976;20.038;2023-07-31T03:20:41;4.78;;;3.42;;
76745;SDS011;65671;49.976;20.038;2023-07-31T03:23:07;4.60;;;3.80;;
76745;SDS011;65671;49.976;20.038;2023-07-31T03:25:33;5.72;;;3.40;;
76745;SDS011;65671;49.976;20.038;2023-07-31T03:27:58;4.70;;;3.25;;
76745;SDS011;65671;49.976;20.038;2023-07-31T03:30:23;4.43;;;3.20;;
76745;SDS011;65671;49.976;20.038;2023-07-31T03:32:49;5.15;;;3.67;;
76745;SDS011;65671;49.976;20.038;2023-07-31T03:35:14;5.13;;;3.70;;
76745;SDS011;65671;49.976;20.038;2023-07-31T03:37:40;5.50;;;3.92;;
76745;SDS011;65671;49.976;20.038;2023-07-31T03:40:05;4.80;;;3.65;;
76745;SDS011;65671;49.976;20.038;2023-07-31T03:42:31;5.25;;;3.53;;
76745;SDS011;65671;49.976;20.038;2023-07-31T03:44:57;5.95;;;3.97;;
76745;SDS011;65671;49.976;20.038;2023-07-31T03:47:22;5.95;;;3.75;;
76745;SDS011;65671;49.976;20.038;2023-07-31T03:49:47;4.68;;;3.40;;
76745;SDS011;65671;49.976;20.038;2023-07-31T03:52:13;4.97;;;3.63;;
76745;SDS011;65671;49.976;20.038;2023-07-31T03:54:38;5.65;;;3.58;;
76745;SDS011;65671;49.976;20.038;2023-07-31T03:57:04;5.75;;;3.75;;
76745;SDS011;65671;49.976;20.038;2023-07-31T03:59:29;5.07;;;3.67;;
76745;SDS011;65671;49.976;20.038;2023-07-31T04:01:55;5.68;;;3.72;;
76745;SDS011;65671;49.976;20.038;2023-07-31T04:04:20;4.93;;;3.42;;
76745;SDS011;65671;49.976;20.038;2023-07-31T04:06:46;5.28;;;3.88;;
76745;SDS011;65671;49.976;20.038;2023-07-31T04:09:11;4.03;;;3.47;;
76745;SDS011;65671;49.976;20.038;2023-07-31T04:11:36;7.40;;;3.90;;
76745;SDS011;65671;49.976;20.038;2023-07-31T04:14:02;4.47;;;3.58;;
76745;SDS011;65671;49.976;20.038;2023-07-31T04:16:27;4.53;;;3.60;;
76745;SDS011;65671;49.976;20.038;2023-07-31T04:18:53;4.72;;;3.60;;
76745;SDS011;65671;49.976;20.038;2023-07-31T04:21:18;6.20;;;3.40;;
76745;SDS011;65671;49.976;20.038;2023-07-31T04:23:44;5.20;;;3.60;;
76745;SDS011;65671;49.976;20.038;2023-07-31T04:26:09;6.53;;;3.35;;
76745;SDS011;65671;49.976;20.038;2023-07-31T04:28:34;4.45;;;3.55;;
76745;SDS011;65671;49.976;20.038;2023-07-31T04:31:00;5.05;;;3.67;;
76745;SDS011;65671;49.976;20.038;2023-07-31T04:33:25;6.15;;;3.30;;
76745;SDS011;65671;49.976;20.038;2023-07-31T04:35:51;4.93;;;3.35;;
76745;SDS011;65671;49.976;20.038;2023-07-31T04:38:18;6.35;;;3.72;;
76745;SDS011;65671;49.976;20.038;2023-07-31T04:40:44;5.68;;;3.58;;
76745;SDS011;65671;49.976;20.038;2023-07-31T04:43:10;6.32;;;3.63;;
76745;SDS011;65671;49.976;20.038;2023-07-31T04:45:35;4.68;;;3.53;;
76745;SDS011;65671;49.976;20.038;2023-07-31T04:48:01;5.20;;;3.80;;
76745;SDS011;65671;49.976;20.038;2023-07-31T04:50:26;6.70;;;3.80;;
76745;SDS011;65671;49.976;20.038;2023-07-31T04:52:52;8.00;;;4.30;;
76745;SDS011;65671;49.976;20.038;2023-07-31T04:55:17;6.20;;;4.65;;
76745;SDS011;65671;49.976;20.038;2023-07-31T04:57:43;5.97;;;3.70;;
76745;SDS011;65671;49.976;20.038;2023-07-31T05:00:08;6.55;;;3.65;;
76745;SDS011;65671;49.976;20.038;2023-07-31T05:02:34;5.88;;;4.18;;
76745;SDS011;65671;49.976;20.038;2023-07-31T05:04:59;5.15;;;3.35;;
76745;SDS011;65671;49.976;20.038;2023-07-31T05:07:25;6.13;;;4.45;;
76745;SDS011;65671;49.976;20.038;2023-07-31T05:09:50;6.38;;;3.60;;
76745;SDS011;65671;49.976;20.038;2023-07-31T05:12:16;4.88;;;3.75;;
76745;SDS011;65671;49.976;20.038;2023-07-31T05:14:41;6.13;;;4.25;;
76745;SDS011;65671;49.976;20.038;2023-07-31T05:17:07;5.10;;;4.25;;
76745;SDS011;65671;49.976;20.038;2023-07-31T05:19:32;5.43;;;4.00;;
76745;SDS011;65671;49.976;20.038;2023-07-31T05:21:57;6.03;;;4.78;;
76745;SDS011;65671;49.976;20.038;2023-07-31T05:24:23;6.95;;;4.72;;
76745;SDS011;65671;49.976;20.038;2023-07-31T05:26:48;5.72;;;5.13;;
76745;SDS011;65671;49.976;20.038;2023-07-31T05:29:14;9.13;;;5.43;;
76745;SDS011;65671;49.976;20.038;2023-07-31T05:31:39;7.20;;;5.40;;
76745;SDS011;65671;49.976;20.038;2023-07-31T05:34:05;9.30;;;5.40;;
76745;SDS011;65671;49.976;20.038;2023-07-31T05:36:30;11.52;;;6.70;;
76745;SDS011;65671;49.976;20.038;2023-07-31T05:38:56;8.15;;;5.63;;
76745;SDS011;65671;49.976;20.038;2023-07-31T05:41:21;7.25;;;5.43;;
76745;SDS011;65671;49.976;20.038;2023-07-31T05:43:46;6.47;;;5.05;;
76745;SDS011;65671;49.976;20.038;2023-07-31T05:46:12;6.60;;;5.25;;
76745;SDS011;65671;49.976;20.038;2023-07-31T05:48:37;6.45;;;5.10;;
76745;SDS011;65671;49.976;20.038;2023-07-31T05:51:03;6.55;;;5.22;;
76745;SDS011;65671;49.976;20.038;2023-07-31T05:53:28;5.95;;;4.93;;
76745;SDS011;65671;49.976;20.038;2023-07-31T05:55:54;5.97;;;4.95;;
76745;SDS011;65671;49.976;20.038;2023-07-31T05:58:19;7.30;;;5.50;;
76745;SDS011;65671;49.976;20.038;2023-07-31T06:00:44;5.88;;;5.28;;
76745;SDS011;65671;49.976;20.038;2023-07-31T06:03:10;7.10;;;5.03;;
76745;SDS011;65671;49.976;20.038;2023-07-31T06:05:35;7.75;;;5.38;;
76745;SDS011;65671;49.976;20.038;2023-07-31T06:08:01;7.25;;;4.95;;
76745;SDS011;65671;49.976;20.038;2023-07-31T06:10:27;7.88;;;5.93;;
76745;SDS011;65671;49.976;20.038;2023-07-31T06:12:53;8.30;;;5.72;;
76745;SDS011;65671;49.976;20.038;2023-07-31T06:15:19;7.03;;;5.53;;
76745;SDS011;65671;49.976;20.038;2023-07-31T06:17:45;7.13;;;5.40;;
76745;SDS011;65671;49.976;20.038;2023-07-31T06:20:10;7.65;;;5.10;;
76745;SDS011;65671;49.976;20.038;2023-07-31T06:22:36;7.72;;;5.85;;
76745;SDS011;65671;49.976;20.038;2023-07-31T06:25:01;9.75;;;6.22;;
76745;SDS011;65671;49.976;20.038;2023-07-31T06:27:28;9.20;;;6.63;;
76745;SDS011;65671;49.976;20.038;2023-07-31T06:29:53;6.75;;;5.78;;
76745;SDS011;65671;49.976;20.038;2023-07-31T06:32:18;9.60;;;5.95;;
76745;SDS011;65671;49.976;20.038;2023-07-31T06:34:44;9.15;;;6.15;;
76745;SDS011;65671;49.976;20.038;2023-07-31T06:37:10;8.15;;;6.18;;
76745;SDS011;65671;49.976;20.038;2023-07-31T06:39:35;7.97;;;5.60;;
76745;SDS011;65671;49.976;20.038;2023-07-31T06:42:01;7.80;;;6.30;;
76745;SDS011;65671;49.976;20.038;2023-07-31T06:44:26;6.65;;;5.95;;
76745;SDS011;65671;49.976;20.038;2023-07-31T06:46:52;6.30;;;5.70;;
76745;SDS011;65671;49.976;20.038;2023-07-31T06:49:17;7.05;;;5.80;;
76745;SDS011;65671;49.976;20.038;2023-07-31T06:51:43;7.60;;;6.00;;
76745;SDS011;65671;49.976;20.038;2023-07-31T06:54:09;8.73;;;5.57;;
76745;SDS011;65671;49.976;20.038;2023-07-31T06:56:34;6.35;;;5.20;;
76745;SDS011;65671;49.976;20.038;2023-07-31T06:59:00;8.88;;;5.97;;
76745;SDS011;65671;49.976;20.038;2023-07-31T07:01:26;7.13;;;5.90;;
76745;SDS011;65671;49.976;20.038;2023-07-31T07:03:52;6.45;;;5.70;;
76745;SDS011;65671;49.976;20.038;2023-07-31T07:06:18;7.65;;;5.53;;
76745;SDS011;65671;49.976;20.038;2023-07-31T07:08:44;14.32;;;6.78;;
76745;SDS011;65671;49.976;20.038;2023-07-31T07:11:09;6.88;;;5.60;;
76745;SDS011;65671;49.976;20.038;2023-07-31T07:13:35;9.60;;;6.20;;
76745;SDS011;65671;49.976;20.038;2023-07-31T07:16:00;7.13;;;6.05;;
76745;SDS011;65671;49.976;20.038;2023-07-31T07:18:26;7.32;;;5.90;;
76745;SDS011;65671;49.976;20.038;2023-07-31T07:20:52;7.88;;;6.25;;
76745;SDS011;65671;49.976;20.038;2023-07-31T07:23:19;7.60;;;5.53;;
76745;SDS011;65671;49.976;20.038;2023-07-31T07:25:45;7.40;;;6.25;;
76745;SDS011;65671;49.976;20.038;2023-07-31T07:28:12;6.63;;;5.35;;
76745;SDS011;65671;49.976;20.038;2023-07-31T07:30:37;7.07;;;5.03;;
76745;SDS011;65671;49.976;20.038;2023-07-31T07:33:03;7.65;;;5.28;;
76745;SDS011;65671;49.976;20.038;2023-07-31T07:35:28;7.15;;;5.30;;
76745;SDS011;65671;49.976;20.038;2023-07-31T07:37:54;6.70;;;4.90;;
76745;SDS011;65671;49.976;20.038;2023-07-31T07:40:21;5.43;;;4.85;;
76745;SDS011;65671;49.976;20.038;2023-07-31T07:42:47;6.80;;;4.70;;
76745;SDS011;65671;49.976;20.038;2023-07-31T07:45:12;9.57;;;5.40;;
76745;SDS011;65671;49.976;20.038;2023-07-31T07:47:40;8.70;;;5.47;;
76745;SDS011;65671;49.976;20.038;2023-07-31T07:50:06;6.97;;;5.65;;
76745;SDS011;65671;49.976;20.038;2023-07-31T07:52:32;7.22;;;5.07;;
76745;SDS011;65671;49.976;20.038;2023-07-31T07:54:57;7.38;;;5.38;;
76745;SDS011;65671;49.976;20.038;2023-07-31T07:57:23;8.95;;;4.38;;
76745;SDS011;65671;49.976;20.038;2023-07-31T07:59:48;4.82;;;3.88;;
76745;SDS011;65671;49.976;20.038;2023-07-31T08:02:13;4.88;;;3.92;;
76745;SDS011;65671;49.976;20.038;2023-07-31T08:04:39;6.85;;;4.60;;
76745;SDS011;65671;49.976;20.038;2023-07-31T08:07:04;5.50;;;4.35;;
76745;SDS011;65671;49.976;20.038;2023-07-31T08:09:30;8.25;;;4.30;;
76745;SDS011;65671;49.976;20.038;2023-07-31T08:11:55;6.88;;;4.38;;
76745;SDS011;65671;49.976;20.038;2023-07-31T08:14:26;6.18;;;3.67;;
76745;SDS011;65671;49.976;20.038;2023-07-31T08:16:52;7.55;;;4.15;;
76745;SDS011;65671;49.976;20.038;2023-07-31T08:19:18;5.40;;;3.67;;
76745;SDS011;65671;49.976;20.038;2023-07-31T08:21:43;5.72;;;3.90;;
76745;SDS011;65671;49.976;20.038;2023-07-31T08:24:09;6.32;;;3.80;;
76745;SDS011;65671;49.976;20.038;2023-07-31T08:26:34;6.18;;;3.80;;
76745;SDS011;65671;49.976;20.038;2023-07-31T08:29:00;5.13;;;4.00;;
76745;SDS011;65671;49.976;20.038;2023-07-31T08:31:25;4.25;;;3.30;;
76745;SDS011;65671;49.976;20.038;2023-07-31T08:33:51;4.75;;;3.20;;
76745;SDS011;65671;49.976;20.038;2023-07-31T08:36:17;6.20;;;3.65;;
76745;SDS011;65671;49.976;20.038;2023-07-31T08:38:43;11.57;;;3.75;;
76745;SDS011;65671;49.976;20.038;2023-07-31T08:41:10;6.38;;;3.28;;
76745;SDS011;65671;49.976;20.038;2023-07-31T08:43:36;10.05;;;3.80;;
76745;SDS011;65671;49.976;20.038;2023-07-31T08:46:02;7.22;;;4.00;;
76745;SDS011;65671;49.976;20.038;2023-07-31T08:48:28;4.15;;;3.13;;
76745;SDS011;65671;49.976;20.038;2023-07-31T08:50:56;6.28;;;3.55;;
76745;SDS011;65671;49.976;20.038;2023-07-31T08:53:21;5.05;;;3.53;;
76745;SDS011;65671;49.976;20.038;2023-07-31T08:55:47;5.05;;;3.53;;
76745;SDS011;65671;49.976;20.038;2023-07-31T08:58:14;7.22;;;4.50;;
76745;SDS011;65671;49.976;20.038;2023-07-31T09:00:40;7.85;;;4.10;;
76745;SDS011;65671;49.976;20.038;2023-07-31T09:03:09;5.25;;;3.33;;
76745;SDS011;65671;49.976;20.038;2023-07-31T09:05:39;5.13;;;3.55;;
76745;SDS011;65671;49.976;20.038;2023-07-31T09:08:08;7.75;;;4.75;;
76745;SDS011;65671;49.976;20.038;2023-07-31T09:10:35;5.75;;;3.38;;
76745;SDS011;65671;49.976;20.038;2023-07-31T09:13:00;5.35;;;3.13;;
76745;SDS011;65671;49.976;20.038;2023-07-31T09:15:27;4.00;;;3.00;;
76745;SDS011;65671;49.976;20.038;2023-07-31T09:18:00;8.50;;;3.70;;
76745;SDS011;65671;49.976;20.038;2023-07-31T09:20:26;7.75;;;3.58;;
76745;SDS011;65671;49.976;20.038;2023-07-31T09:22:52;4.00;;;3.38;;
76745;SDS011;65671;49.976;20.038;2023-07-31T09:27:54;8.85;;;3.45;;
76745;SDS011;65671;49.976;20.038;2023-07-31T09:30:22;4.03;;;2.85;;
76745;SDS011;65671;49.976;20.038;2023-07-31T09:32:49;6.13;;;3.20;;
76745;SDS011;65671;49.976;20.038;2023-07-31T09:37:40;5.88;;;4.18;;
76745;SDS011;65671;49.976;20.038;2023-07-31T09:40:06;6.45;;;3.17;;
76745;SDS011;65671;49.976;20.038;2023-07-31T09:42:32;6.85;;;3.28;;
76745;SDS011;65671;49.976;20.038;2023-07-31T09:45:08;7.82;;;3.47;;
76745;SDS011;65671;49.976;20.038;2023-07-31T09:47:34;7.70;;;3.35;;
76745;SDS011;65671;49.976;20.038;2023-07-31T09:50:00;5.90;;;2.78;;
76745;SDS011;65671;49.976;20.038;2023-07-31T09:52:28;3.58;;;2.97;;
76745;SDS011;65671;49.976;20.038;2023-07-31T09:54:54;5.75;;;2.75;;
76745;SDS011;65671;49.976;20.038;2023-07-31T09:57:19;7.45;;;2.88;;
76745;SDS011;65671;49.976;20.038;2023-07-31T09:59:47;4.60;;;3.15;;
76745;SDS011;65671;49.976;20.038;2023-07-31T10:02:20;4.45;;;3.22;;
76745;SDS011;65671;49.976;20.038;2023-07-31T10:04:47;5.80;;;3.00;;
76745;SDS011;65671;49.976;20.038;2023-07-31T10:07:15;5.60;;;3.10;;
76745;SDS011;65671;49.976;20.038;2023-07-31T10:09:43;6.13;;;3.50;;
76745;SDS011;65671;49.976;20.038;2023-07-31T10:12:09;8.85;;;3.40;;
76745;SDS011;65671;49.976;20.038;2023-07-31T10:14:37;5.30;;;3.13;;
76745;SDS011;65671;49.976;20.038;2023-07-31T10:17:04;5.75;;;2.80;;
76745;SDS011;65671;49.976;20.038;2023-07-31T10:19:31;4.03;;;3.10;;
76745;SDS011;65671;49.976;20.038;2023-07-31T10:21:57;5.80;;;3.33;;
76745;SDS011;65671;49.976;20.038;2023-07-31T10:24:24;5.90;;;3.28;;
76745;SDS011;65671;49.976;20.038;2023-07-31T10:26:51;4.10;;;2.33;;
76745;SDS011;65671;49.976;20.038;2023-07-31T10:29:18;3.47;;;2.85;;
76745;SDS011;65671;49.976;20.038;2023-07-31T10:31:45;17.92;;;3.30;;
76745;SDS011;65671;49.976;20.038;2023-07-31T10:34:12;6.80;;;3.28;;
76745;SDS011;65671;49.976;20.038;2023-07-31T10:36:38;3.53;;;2.70;;
76745;SDS011;65671;49.976;20.038;2023-07-31T10:39:04;5.72;;;2.88;;
76745;SDS011;65671;49.976;20.038;2023-07-31T10:41:49;3.67;;;2.60;;
76745;SDS011;65671;49.976;20.038;2023-07-31T10:44:16;5.40;;;2.35;;
76745;SDS011;65671;49.976;20.038;2023-07-31T10:46:42;4.55;;;2.35;;
76745;SDS011;65671;49.976;20.038;2023-07-31T10:49:10;7.97;;;2.78;;
76745;SDS011;65671;49.976;20.038;2023-07-31T10:51:46;4.38;;;2.63;;
76745;SDS011;65671;49.976;20.038;2023-07-31T10:54:15;5.93;;;2.88;;
76745;SDS011;65671;49.976;20.038;2023-07-31T10:56:46;6.95;;;2.58;;
76745;SDS011;65671;49.976;20.038;2023-07-31T11:01:55;9.45;;;3.15;;
76745;SDS011;65671;49.976;20.038;2023-07-31T11:04:27;5.50;;;2.50;;
76745;SDS011;65671;49.976;20.038;2023-07-31T11:07:00;3.22;;;2.47;;
76745;SDS011;65671;49.976;20.038;2023-07-31T11:09:31;3.95;;;2.45;;
76745;SDS011;65671;49.976;20.038;2023-07-31T11:11:58;4.57;;;2.45;;
76745;SDS011;65671;49.976;20.038;2023-07-31T11:14:24;6.32;;;2.65;;
76745;SDS011;65671;49.976;20.038;2023-07-31T11:16:50;4.85;;;2.78;;
76745;SDS011;65671;49.976;20.038;2023-07-31T11:19:25;6.75;;;2.55;;
76745;SDS011;65671;49.976;20.038;2023-07-31T11:21:51;4.57;;;2.75;;
76745;SDS011;65671;49.976;20.038;2023-07-31T11:24:18;5.82;;;3.47;;
76745;SDS011;65671;49.976;20.038;2023-07-31T11:26:53;4.90;;;2.78;;
76745;SDS011;65671;49.976;20.038;2023-07-31T11:29:18;6.05;;;2.53;;
76745;SDS011;65671;49.976;20.038;2023-07-31T11:31:45;5.65;;;2.38;;
76745;SDS011;65671;49.976;20.038;2023-07-31T11:34:12;3.55;;;2.30;;
76745;SDS011;65671;49.976;20.038;2023-07-31T11:36:37;6.88;;;2.47;;
76745;SDS011;65671;49.976;20.038;2023-07-31T11:39:09;4.35;;;2.45;;
76745;SDS011;65671;49.976;20.038;2023-07-31T11:41:35;5.82;;;2.20;;
76745;SDS011;65671;49.976;20.038;2023-07-31T11:44:01;4.40;;;2.30;;
76745;SDS011;65671;49.976;20.038;2023-07-31T11:46:29;4.38;;;2.50;;
76745;SDS011;65671;49.976;20.038;2023-07-31T11:48:58;4.25;;;2.20;;
76745;SDS011;65671;49.976;20.038;2023-07-31T11:51:25;3.13;;;2.22;;
76745;SDS011;65671;49.976;20.038;2023-07-31T11:53:53;3.80;;;2.35;;
76745;SDS011;65671;49.976;20.038;2023-07-31T11:56:21;3.58;;;2.40;;
76745;SDS011;65671;49.976;20.038;2023-07-31T11:58:50;3.22;;;2.40;;
76745;SDS011;65671;49.976;20.038;2023-07-31T12:01:19;3.47;;;2.20;;
76745;SDS011;65671;49.976;20.038;2023-07-31T12:03:47;3.40;;;2.30;;
76745;SDS011;65671;49.976;20.038;2023-07-31T12:06:14;2.50;;;2.05;;
76745;SDS011;65671;49.976;20.038;2023-07-31T12:08:39;3.13;;;2.45;;
76745;SDS011;65671;49.976;20.038;2023-07-31T12:11:05;5.55;;;2.50;;
76745;SDS011;65671;49.976;20.038;2023-07-31T12:13:34;6.50;;;2.50;;
76745;SDS011;65671;49.976;20.038;2023-07-31T12:16:01;5.10;;;2.38;;
76745;SDS011;65671;49.976;20.038;2023-07-31T12:18:28;4.60;;;2.65;;
76745;SDS011;65671;49.976;20.038;2023-07-31T12:20:56;3.67;;;2.47;;
76745;SDS011;65671;49.976;20.038;2023-07-31T12:23:32;4.47;;;2.47;;
76745;SDS011;65671;49.976;20.038;2023-07-31T12:26:33;4.50;;;2.60;;
76745;SDS011;65671;49.976;20.038;2023-07-31T12:28:58;4.80;;;2.70;;
76745;SDS011;65671;49.976;20.038;2023-07-31T12:31:24;4.22;;;2.10;;
76745;SDS011;65671;49.976;20.038;2023-07-31T12:33:53;3.78;;;2.22;;
76745;SDS011;65671;49.976;20.038;2023-07-31T12:36:21;5.13;;;2.20;;
76745;SDS011;65671;49.976;20.038;2023-07-31T12:38:48;4.03;;;2.80;;
76745;SDS011;65671;49.976;20.038;2023-07-31T12:41:15;3.70;;;2.53;;
76745;SDS011;65671;49.976;20.038;2023-07-31T12:43:41;3.60;;;2.30;;
76745;SDS011;65671;49.976;20.038;2023-07-31T12:46:07;3.95;;;2.40;;
76745;SDS011;65671;49.976;20.038;2023-07-31T12:48:33;4.25;;;2.50;;
76745;SDS011;65671;49.976;20.038;2023-07-31T12:50:59;7.00;;;2.40;;
76745;SDS011;65671;49.976;20.038;2023-07-31T12:53:25;5.10;;;2.45;;
76745;SDS011;65671;49.976;20.038;2023-07-31T12:55:50;3.35;;;2.15;;
76745;SDS011;65671;49.976;20.038;2023-07-31T12:58:16;3.08;;;2.33;;
76745;SDS011;65671;49.976;20.038;2023-07-31T13:00:41;4.55;;;2.42;;
76745;SDS011;65671;49.976;20.038;2023-07-31T13:03:07;4.85;;;2.22;;
76745;SDS011;65671;49.976;20.038;2023-07-31T13:05:33;3.78;;;1.90;;
76745;SDS011;65671;49.976;20.038;2023-07-31T13:07:58;4.78;;;2.00;;
76745;SDS011;65671;49.976;20.038;2023-07-31T13:10:24;5.18;;;2.25;;
76745;SDS011;65671;49.976;20.038;2023-07-31T13:12:51;4.05;;;2.20;;
76745;SDS011;65671;49.976;20.038;2023-07-31T13:15:17;4.45;;;2.05;;
76745;SDS011;65671;49.976;20.038;2023-07-31T13:17:42;2.85;;;1.90;;
76745;SDS011;65671;49.976;20.038;2023-07-31T13:20:08;4.93;;;2.63;;
76745;SDS011;65671;49.976;20.038;2023-07-31T13:22:34;3.88;;;1.77;;
76745;SDS011;65671;49.976;20.038;2023-07-31T13:24:59;5.22;;;2.90;;
76745;SDS011;65671;49.976;20.038;2023-07-31T13:27:25;2.95;;;2.05;;
76745;SDS011;65671;49.976;20.038;2023-07-31T13:29:53;3.53;;;2.33;;
76745;SDS011;65671;49.976;20.038;2023-07-31T13:32:19;3.45;;;2.10;;
76745;SDS011;65671;49.976;20.038;2023-07-31T13:34:46;5.13;;;2.47;;
76745;SDS011;65671;49.976;20.038;2023-07-31T13:37:12;3.35;;;2.67;;
76745;SDS011;65671;49.976;20.038;2023-07-31T13:39:38;4.07;;;2.40;;
76745;SDS011;65671;49.976;20.038;2023-07-31T13:42:04;2.78;;;2.13;;
76745;SDS011;65671;49.976;20.038;2023-07-31T13:44:36;4.82;;;2.38;;
76745;SDS011;65671;49.976;20.038;2023-07-31T13:47:04;4.38;;;2.25;;
76745;SDS011;65671;49.976;20.038;2023-07-31T13:49:30;9.55;;;2.65;;
76745;SDS011;65671;49.976;20.038;2023-07-31T13:51:56;5.10;;;2.40;;
76745;SDS011;65671;49.976;20.038;2023-07-31T13:54:23;4.72;;;2.13;;
76745;SDS011;65671;49.976;20.038;2023-07-31T13:56:49;4.05;;;2.35;;
76745;SDS011;65671;49.976;20.038;2023-07-31T13:59:14;5.32;;;2.45;;
76745;SDS011;65671;49.976;20.038;2023-07-31T14:01:41;5.65;;;2.35;;
76745;SDS011;65671;49.976;20.038;2023-07-31T14:04:07;4.07;;;2.47;;
76745;SDS011;65671;49.976;20.038;2023-07-31T14:06:33;5.82;;;3.08;;
76745;SDS011;65671;49.976;20.038;2023-07-31T14:08:58;7.45;;;2.58;;
76745;SDS011;65671;49.976;20.038;2023-07-31T14:11:24;6.60;;;2.42;;
76745;SDS011;65671;49.976;20.038;2023-07-31T14:13:50;4.07;;;2.45;;
76745;SDS011;65671;49.976;20.038;2023-07-31T14:16:16;4.65;;;2.60;;
76745;SDS011;65671;49.976;20.038;2023-07-31T14:18:42;3.10;;;2.47;;
76745;SDS011;65671;49.976;20.038;2023-07-31T14:21:08;3.85;;;2.53;;
76745;SDS011;65671;49.976;20.038;2023-07-31T14:23:33;3.90;;;2.78;;
76745;SDS011;65671;49.976;20.038;2023-07-31T14:25:59;5.88;;;2.75;;
76745;SDS011;65671;49.976;20.038;2023-07-31T14:28:24;5.05;;;2.30;;
76745;SDS011;65671;49.976;20.038;2023-07-31T14:30:50;4.55;;;2.60;;
76745;SDS011;65671;49.976;20.038;2023-07-31T14:33:16;3.08;;;2.30;;
76745;SDS011;65671;49.976;20.038;2023-07-31T14:35:41;5.47;;;2.55;;
76745;SDS011;65671;49.976;20.038;2023-07-31T14:38:06;3.40;;;2.00;;
76745;SDS011;65671;49.976;20.038;2023-07-31T14:40:32;7.18;;;2.67;;
76745;SDS011;65671;49.976;20.038;2023-07-31T14:42:57;2.72;;;2.20;;
76745;SDS011;65671;49.976;20.038;2023-07-31T14:45:23;3.80;;;2.17;;